sensor_id;sensor_type;location;lat;lon;timestamp;pressure;altitude;pressure_sealevel;temperature;humidity
46464;BME280;32161;48.148;-1.554;2023-07-31T00:00:31;101031.38;;;19.00;91.32
46464;BME280;32161;48.148;-1.554;2023-07-31T00:03:00;101034.69;;;18.97;91.75
46464;BME280;32161;48.148;-1.554;2023-07-31T00:05:27;101033.84;;;19.01;91.46
46464;BME280;32161;48.148;-1.554;2023-07-31T00:07:55;101038.81;;;18.99;91.34
46464;BME280;32161;48.148;-1.554;2023-07-31T00:10:23;101049.56;;;18.86;92.27
46464;BME280;32161;48.148;-1.554;2023-07-31T00:12:50;101052.88;;;18.83;92.78
46464;BME280;32161;48.148;-1.554;2023-07-31T00:15:18;101058.94;;;18.95;92.39
46464;BME280;32161;48.148;-1.554;2023-07-31T00:17:45;101050.09;;;18.98;91.79
46464;BME280;32161;48.148;-1.554;2023-07-31T00:20:15;101054.25;;;19.00;91.60
46464;BME280;32161;48.148;-1.554;2023-07-31T00:22:42;101043.50;;;18.94;92.18
46464;BME280;32161;48.148;-1.554;2023-07-31T00:25:10;101041.84;;;18.93;92.10
46464;BME280;32161;48.148;-1.554;2023-07-31T00:27:37;101029.72;;;18.94;92.21
46464;BME280;32161;48.148;-1.554;2023-07-31T00:30:06;101041.88;;;18.88;92.56
46464;BME280;32161;48.148;-1.554;2023-07-31T00:32:34;101048.19;;;18.93;92.36
46464;BME280;32161;48.148;-1.554;2023-07-31T00:35:02;101049.00;;;18.94;92.00
46464;BME280;32161;48.148;-1.554;2023-07-31T00:37:31;101046.28;;;18.89;92.79
46464;BME280;32161;48.148;-1.554;2023-07-31T00:39:58;101034.97;;;18.90;92.88
46464;BME280;32161;48.148;-1.554;2023-07-31T00:42:26;101033.63;;;18.88;93.11
46464;BME280;32161;48.148;-1.554;2023-07-31T00:44:54;101022.59;;;18.88;93.04
46464;BME280;32161;48.148;-1.554;2023-07-31T00:47:21;101026.44;;;18.87;93.57
46464;BME280;32161;48.148;-1.554;2023-07-31T00:49:49;101025.88;;;18.90;92.88
46464;BME280;32161;48.148;-1.554;2023-07-31T00:52:16;101019.81;;;19.03;92.24
46464;BME280;32161;48.148;-1.554;2023-07-31T00:54:46;101011.28;;;18.99;92.44
46464;BME280;32161;48.148;-1.554;2023-07-31T00:57:14;101006.03;;;18.98;92.98
46464;BME280;32161;48.148;-1.554;2023-07-31T00:59:41;101010.97;;;19.01;92.45
46464;BME280;32161;48.148;-1.554;2023-07-31T01:02:09;101008.53;;;18.89;93.20
46464;BME280;32161;48.148;-1.554;2023-07-31T01:04:36;100999.75;;;18.87;93.65
46464;BME280;32161;48.148;-1.554;2023-07-31T01:07:11;101000.00;;;18.86;93.60
46464;BME280;32161;48.148;-1.554;2023-07-31T01:09:47;100999.19;;;18.85;93.73
46464;BME280;32161;48.148;-1.554;2023-07-31T01:12:17;100996.19;;;18.76;94.07
46464;BME280;32161;48.148;-1.554;2023-07-31T01:15:01;101002.50;;;18.77;93.68
46464;BME280;32161;48.148;-1.554;2023-07-31T01:17:29;101009.09;;;18.86;93.45
46464;BME280;32161;48.148;-1.554;2023-07-31T01:20:01;101000.56;;;18.83;93.68
46464;BME280;32161;48.148;-1.554;2023-07-31T01:23:22;100987.91;;;18.76;94.50
46464;BME280;32161;48.148;-1.554;2023-07-31T01:26:04;100982.91;;;18.94;93.66
46464;BME280;32161;48.148;-1.554;2023-07-31T01:28:46;100980.13;;;18.94;93.45
46464;BME280;32161;48.148;-1.554;2023-07-31T01:31:22;100988.97;;;18.91;93.60
46464;BME280;32161;48.148;-1.554;2023-07-31T01:33:54;100986.78;;;18.88;93.89
46464;BME280;32161;48.148;-1.554;2023-07-31T01:36:24;100989.53;;;18.83;94.01
46464;BME280;32161;48.148;-1.554;2023-07-31T01:38:52;100982.94;;;18.78;93.92
46464;BME280;32161;48.148;-1.554;2023-07-31T01:41:21;100977.97;;;18.86;93.96
46464;BME280;32161;48.148;-1.554;2023-07-31T01:43:49;100977.41;;;18.89;93.41
46464;BME280;32161;48.148;-1.554;2023-07-31T01:46:16;100967.22;;;18.89;93.44
46464;BME280;32161;48.148;-1.554;2023-07-31T01:48:44;100952.13;;;18.76;94.05
46464;BME280;32161;48.148;-1.554;2023-07-31T01:51:11;100949.91;;;18.68;94.21
46464;BME280;32161;48.148;-1.554;2023-07-31T01:53:39;100953.22;;;18.70;94.70
46464;BME280;32161;48.148;-1.554;2023-07-31T01:56:07;100951.81;;;18.78;94.47
46464;BME280;32161;48.148;-1.554;2023-07-31T01:58:36;100949.88;;;18.78;94.63
46464;BME280;32161;48.148;-1.554;2023-07-31T02:01:03;100953.72;;;18.88;93.92
46464;BME280;32161;48.148;-1.554;2023-07-31T02:03:31;100948.50;;;18.81;94.51
46464;BME280;32161;48.148;-1.554;2023-07-31T02:05:58;100946.84;;;18.85;94.18
46464;BME280;32161;48.148;-1.554;2023-07-31T02:08:26;100930.63;;;18.84;93.66
46464;BME280;32161;48.148;-1.554;2023-07-31T02:10:54;100929.53;;;18.80;94.40
46464;BME280;32161;48.148;-1.554;2023-07-31T02:13:21;100928.94;;;18.88;93.94
46464;BME280;32161;48.148;-1.554;2023-07-31T02:15:50;100921.75;;;18.92;93.29
46464;BME280;32161;48.148;-1.554;2023-07-31T02:18:18;100921.50;;;18.88;93.59
46464;BME280;32161;48.148;-1.554;2023-07-31T02:20:49;100925.63;;;18.86;93.70
46464;BME280;32161;48.148;-1.554;2023-07-31T02:23:17;100920.16;;;18.81;93.57
46464;BME280;32161;48.148;-1.554;2023-07-31T02:25:45;100925.69;;;18.70;94.08
46464;BME280;32161;48.148;-1.554;2023-07-31T02:28:13;100903.38;;;18.77;93.87
46464;BME280;32161;48.148;-1.554;2023-07-31T02:30:43;100900.59;;;18.77;94.38
46464;BME280;32161;48.148;-1.554;2023-07-31T02:33:13;100893.72;;;18.74;94.31
46464;BME280;32161;48.148;-1.554;2023-07-31T02:35:41;100895.63;;;18.84;94.24
46464;BME280;32161;48.148;-1.554;2023-07-31T02:38:09;100898.66;;;18.83;94.18
46464;BME280;32161;48.148;-1.554;2023-07-31T02:40:36;100893.72;;;18.74;94.23
46464;BME280;32161;48.148;-1.554;2023-07-31T02:43:04;100894.00;;;18.78;94.40
46464;BME280;32161;48.148;-1.554;2023-07-31T02:45:31;100900.31;;;18.78;94.92
46464;BME280;32161;48.148;-1.554;2023-07-31T02:47:59;100896.47;;;18.80;94.71
46464;BME280;32161;48.148;-1.554;2023-07-31T02:50:28;100895.63;;;18.79;95.08
46464;BME280;32161;48.148;-1.554;2023-07-31T02:52:55;100902.81;;;18.70;95.22
46464;BME280;32161;48.148;-1.554;2023-07-31T02:55:23;100899.78;;;18.76;95.55
46464;BME280;32161;48.148;-1.554;2023-07-31T02:57:51;100894.81;;;18.78;95.69
46464;BME280;32161;48.148;-1.554;2023-07-31T03:00:19;100884.88;;;18.88;95.05
46464;BME280;32161;48.148;-1.554;2023-07-31T03:02:46;100888.19;;;18.85;95.35
46464;BME280;32161;48.148;-1.554;2023-07-31T03:05:14;100881.03;;;18.78;95.39
46464;BME280;32161;48.148;-1.554;2023-07-31T03:07:43;100872.50;;;18.75;96.05
46464;BME280;32161;48.148;-1.554;2023-07-31T03:10:10;100883.22;;;18.82;95.63
46464;BME280;32161;48.148;-1.554;2023-07-31T03:12:38;100874.16;;;18.81;96.10
46464;BME280;32161;48.148;-1.554;2023-07-31T03:15:07;100876.88;;;18.86;95.57
46464;BME280;32161;48.148;-1.554;2023-07-31T03:17:35;100874.44;;;18.74;95.36
46464;BME280;32161;48.148;-1.554;2023-07-31T03:20:04;100870.06;;;18.73;96.03
46464;BME280;32161;48.148;-1.554;2023-07-31T03:22:31;100867.00;;;18.75;96.26
46464;BME280;32161;48.148;-1.554;2023-07-31T03:25:02;100864.00;;;18.66;96.58
46464;BME280;32161;48.148;-1.554;2023-07-31T03:27:30;100856.00;;;18.75;96.03
46464;BME280;32161;48.148;-1.554;2023-07-31T03:29:57;100859.84;;;18.74;96.20
46464;BME280;32161;48.148;-1.554;2023-07-31T03:32:25;100851.78;;;18.93;95.55
46464;BME280;32161;48.148;-1.554;2023-07-31T03:34:52;100851.56;;;18.84;94.65
46464;BME280;32161;48.148;-1.554;2023-07-31T03:37:20;100854.06;;;18.81;95.27
46464;BME280;32161;48.148;-1.554;2023-07-31T03:39:47;100849.66;;;18.80;95.51
46464;BME280;32161;48.148;-1.554;2023-07-31T03:42:16;100852.97;;;18.71;95.53
46464;BME280;32161;48.148;-1.554;2023-07-31T03:44:44;100851.84;;;18.77;95.95
46464;BME280;32161;48.148;-1.554;2023-07-31T03:47:11;100836.97;;;18.84;95.25
46464;BME280;32161;48.148;-1.554;2023-07-31T03:49:39;100836.97;;;18.84;95.52
46464;BME280;32161;48.148;-1.554;2023-07-31T03:52:07;100831.94;;;18.91;94.93
46464;BME280;32161;48.148;-1.554;2023-07-31T03:54:34;100843.00;;;18.86;95.04
46464;BME280;32161;48.148;-1.554;2023-07-31T03:57:03;100835.03;;;18.84;94.92
46464;BME280;32161;48.148;-1.554;2023-07-31T03:59:32;100839.13;;;18.87;95.26
46464;BME280;32161;48.148;-1.554;2023-07-31T04:01:59;100830.91;;;18.82;95.74
46464;BME280;32161;48.148;-1.554;2023-07-31T04:04:26;100825.69;;;18.75;96.26
46464;BME280;32161;48.148;-1.554;2023-07-31T04:06:54;100829.00;;;18.77;96.24
46464;BME280;32161;48.148;-1.554;2023-07-31T04:09:21;100822.13;;;18.74;96.58
46464;BME280;32161;48.148;-1.554;2023-07-31T04:11:49;100814.41;;;18.76;96.35
46464;BME280;32161;48.148;-1.554;2023-07-31T04:14:17;100807.53;;;18.74;96.43
46464;BME280;32161;48.148;-1.554;2023-07-31T04:16:46;100825.44;;;18.76;96.69
46464;BME280;32161;48.148;-1.554;2023-07-31T04:19:13;100818.25;;;18.75;96.91
46464;BME280;32161;48.148;-1.554;2023-07-31T04:21:42;100819.88;;;18.82;96.59
46464;BME280;32161;48.148;-1.554;2023-07-31T04:24:10;100819.28;;;18.90;95.91
46464;BME280;32161;48.148;-1.554;2023-07-31T04:26:37;100817.69;;;18.78;96.84
46464;BME280;32161;48.148;-1.554;2023-07-31T04:29:05;100810.81;;;18.81;96.90
46464;BME280;32161;48.148;-1.554;2023-07-31T04:31:34;100814.94;;;18.84;96.93
46464;BME280;32161;48.148;-1.554;2023-07-31T04:34:04;100816.56;;;18.85;97.40
46464;BME280;32161;48.148;-1.554;2023-07-31T04:36:31;100818.72;;;18.93;96.45
46464;BME280;32161;48.148;-1.554;2023-07-31T04:38:59;100804.66;;;18.94;96.24
46464;BME280;32161;48.148;-1.554;2023-07-31T04:41:26;100803.31;;;18.87;97.09
46464;BME280;32161;48.148;-1.554;2023-07-31T04:43:54;100802.25;;;18.83;97.61
46464;BME280;32161;48.148;-1.554;2023-07-31T04:46:21;100793.38;;;18.91;97.20
46464;BME280;32161;48.148;-1.554;2023-07-31T04:48:49;100795.63;;;18.89;97.30
46464;BME280;32161;48.148;-1.554;2023-07-31T04:51:18;100792.81;;;18.99;96.58
46464;BME280;32161;48.148;-1.554;2023-07-31T04:53:47;100795.38;;;18.85;97.85
46464;BME280;32161;48.148;-1.554;2023-07-31T04:56:15;100803.63;;;18.85;98.16
46464;BME280;32161;48.148;-1.554;2023-07-31T04:58:43;100808.00;;;18.86;97.87
46464;BME280;32161;48.148;-1.554;2023-07-31T05:01:10;100800.00;;;18.90;97.89
46464;BME280;32161;48.148;-1.554;2023-07-31T05:03:38;100798.13;;;18.85;98.80
46464;BME280;32161;48.148;-1.554;2023-07-31T05:06:05;100793.38;;;18.91;98.22
46464;BME280;32161;48.148;-1.554;2023-07-31T05:08:34;100801.13;;;18.89;98.57
46464;BME280;32161;48.148;-1.554;2023-07-31T05:11:02;100786.28;;;18.85;98.89
46464;BME280;32161;48.148;-1.554;2023-07-31T05:13:30;100782.06;;;18.97;98.97
46464;BME280;32161;48.148;-1.554;2023-07-31T05:15:57;100773.47;;;19.04;97.85
46464;BME280;32161;48.148;-1.554;2023-07-31T05:18:25;100770.22;;;18.97;97.60
46464;BME280;32161;48.148;-1.554;2023-07-31T05:20:52;100772.19;;;18.91;98.71
46464;BME280;32161;48.148;-1.554;2023-07-31T05:23:20;100782.09;;;18.92;99.08
46464;BME280;32161;48.148;-1.554;2023-07-31T05:25:49;100782.59;;;18.99;98.87
46464;BME280;32161;48.148;-1.554;2023-07-31T05:28:16;100787.25;;;19.04;98.30
46464;BME280;32161;48.148;-1.554;2023-07-31T05:30:44;100778.94;;;19.09;97.92
46464;BME280;32161;48.148;-1.554;2023-07-31T05:33:11;100777.31;;;19.08;98.17
46464;BME280;32161;48.148;-1.554;2023-07-31T05:35:39;100782.78;;;19.13;98.35
46464;BME280;32161;48.148;-1.554;2023-07-31T05:38:06;100784.47;;;19.09;98.43
46464;BME280;32161;48.148;-1.554;2023-07-31T05:40:34;100782.50;;;19.15;98.24
46464;BME280;32161;48.148;-1.554;2023-07-31T05:43:03;100781.91;;;19.18;97.62
46464;BME280;32161;48.148;-1.554;2023-07-31T05:45:32;100782.72;;;19.23;96.97
46464;BME280;32161;48.148;-1.554;2023-07-31T05:48:00;100790.22;;;19.13;98.07
46464;BME280;32161;48.148;-1.554;2023-07-31T05:50:27;100791.59;;;19.10;98.99
46464;BME280;32161;48.148;-1.554;2023-07-31T05:52:55;100780.59;;;19.10;98.87
46464;BME280;32161;48.148;-1.554;2023-07-31T05:55:22;100778.34;;;19.17;98.35
46464;BME280;32161;48.148;-1.554;2023-07-31T05:57:52;100772.56;;;19.14;98.47
46464;BME280;32161;48.148;-1.554;2023-07-31T06:00:21;100778.63;;;19.16;98.79
46464;BME280;32161;48.148;-1.554;2023-07-31T06:02:49;100779.44;;;19.16;98.26
46464;BME280;32161;48.148;-1.554;2023-07-31T06:05:17;100780.47;;;19.25;97.73
46464;BME280;32161;48.148;-1.554;2023-07-31T06:07:44;100782.13;;;19.26;97.94
46464;BME280;32161;48.148;-1.554;2023-07-31T06:10:12;100785.66;;;19.32;97.54
46464;BME280;32161;48.148;-1.554;2023-07-31T06:12:39;100764.72;;;19.31;97.29
46464;BME280;32161;48.148;-1.554;2023-07-31T06:15:07;100762.28;;;19.30;97.94
46464;BME280;32161;48.148;-1.554;2023-07-31T06:17:37;100762.19;;;19.40;97.66
46464;BME280;32161;48.148;-1.554;2023-07-31T06:20:06;100746.69;;;19.44;96.82
46464;BME280;32161;48.148;-1.554;2023-07-31T06:22:34;100749.44;;;19.44;96.78
46464;BME280;32161;48.148;-1.554;2023-07-31T06:25:02;100741.72;;;19.46;97.04
46464;BME280;32161;48.148;-1.554;2023-07-31T06:27:30;100747.19;;;19.51;97.31
46464;BME280;32161;48.148;-1.554;2023-07-31T06:29:57;100742.31;;;19.43;97.53
46464;BME280;32161;48.148;-1.554;2023-07-31T06:32:25;100745.75;;;19.59;96.83
46464;BME280;32161;48.148;-1.554;2023-07-31T06:34:54;100747.09;;;19.61;95.60
46464;BME280;32161;48.148;-1.554;2023-07-31T06:37:21;100743.78;;;19.59;95.44
46464;BME280;32161;48.148;-1.554;2023-07-31T06:39:49;100746.38;;;19.50;96.85
46464;BME280;32161;48.148;-1.554;2023-07-31T06:42:16;100733.47;;;19.46;97.66
46464;BME280;32161;48.148;-1.554;2023-07-31T06:44:44;100737.53;;;19.54;96.56
46464;BME280;32161;48.148;-1.554;2023-07-31T06:47:12;100736.53;;;19.39;98.00
46464;BME280;32161;48.148;-1.554;2023-07-31T06:49:39;100741.72;;;19.46;97.98
46464;BME280;32161;48.148;-1.554;2023-07-31T06:52:08;100745.56;;;19.50;97.29
46464;BME280;32161;48.148;-1.554;2023-07-31T06:54:37;100740.28;;;19.54;98.01
46464;BME280;32161;48.148;-1.554;2023-07-31T06:57:05;100733.22;;;19.42;98.47
46464;BME280;32161;48.148;-1.554;2023-07-31T06:59:32;100735.22;;;19.66;96.73
46464;BME280;32161;48.148;-1.554;2023-07-31T07:02:00;100747.75;;;19.48;98.03
46464;BME280;32161;48.148;-1.554;2023-07-31T07:04:28;100731.81;;;19.45;98.26
46464;BME280;32161;48.148;-1.554;2023-07-31T07:06:55;100734.91;;;19.67;97.41
46464;BME280;32161;48.148;-1.554;2023-07-31T07:09:24;100741.09;;;19.54;97.80
46464;BME280;32161;48.148;-1.554;2023-07-31T07:11:52;100734.03;;;19.43;98.24
46464;BME280;32161;48.148;-1.554;2023-07-31T07:14:19;100724.63;;;19.49;98.27
46464;BME280;32161;48.148;-1.554;2023-07-31T07:16:51;100727.38;;;19.49;98.26
46464;BME280;32161;48.148;-1.554;2023-07-31T07:19:18;100727.06;;;19.50;98.48
46464;BME280;32161;48.148;-1.554;2023-07-31T07:21:46;100714.81;;;19.67;97.32
46464;BME280;32161;48.148;-1.554;2023-07-31T07:24:13;100723.41;;;19.60;97.59
46464;BME280;32161;48.148;-1.554;2023-07-31T07:26:42;100714.88;;;19.86;95.16
46464;BME280;32161;48.148;-1.554;2023-07-31T07:29:10;100716.56;;;19.82;94.93
46464;BME280;32161;48.148;-1.554;2023-07-31T07:31:38;100709.13;;;19.82;95.13
46464;BME280;32161;48.148;-1.554;2023-07-31T07:34:05;100718.50;;;19.81;94.77
46464;BME280;32161;48.148;-1.554;2023-07-31T07:36:33;100716.63;;;19.77;95.41
46464;BME280;32161;48.148;-1.554;2023-07-31T07:39:00;100715.28;;;19.74;95.45
46464;BME280;32161;48.148;-1.554;2023-07-31T07:41:28;100712.13;;;19.86;94.97
46464;BME280;32161;48.148;-1.554;2023-07-31T07:43:56;100709.69;;;19.79;94.45
46464;BME280;32161;48.148;-1.554;2023-07-31T07:46:24;100716.41;;;19.97;94.75
46464;BME280;32161;48.148;-1.554;2023-07-31T07:48:52;100703.31;;;19.84;94.81
46464;BME280;32161;48.148;-1.554;2023-07-31T07:51:19;100701.06;;;19.62;96.70
46464;BME280;32161;48.148;-1.554;2023-07-31T07:53:47;100701.50;;;19.74;96.47
46464;BME280;32161;48.148;-1.554;2023-07-31T07:56:14;100708.88;;;19.79;96.68
46464;BME280;32161;48.148;-1.554;2023-07-31T07:58:42;100699.88;;;19.68;97.14
46464;BME280;32161;48.148;-1.554;2023-07-31T08:01:11;100704.00;;;19.70;97.58
46464;BME280;32161;48.148;-1.554;2023-07-31T08:03:38;100700.97;;;19.72;97.32
46464;BME280;32161;48.148;-1.554;2023-07-31T08:06:06;100702.84;;;19.77;97.52
46464;BME280;32161;48.148;-1.554;2023-07-31T08:08:35;100695.09;;;19.79;97.39
46464;BME280;32161;48.148;-1.554;2023-07-31T08:11:02;100692.34;;;19.79;97.63
46464;BME280;32161;48.148;-1.554;2023-07-31T08:13:30;100688.47;;;19.80;97.29
46464;BME280;32161;48.148;-1.554;2023-07-31T08:15:58;100697.16;;;19.92;97.19
46464;BME280;32161;48.148;-1.554;2023-07-31T08:18:27;100686.13;;;19.92;97.60
46464;BME280;32161;48.148;-1.554;2023-07-31T08:20:54;100683.63;;;19.90;98.43
46464;BME280;32161;48.148;-1.554;2023-07-31T08:23:22;100673.66;;;19.94;98.07
46464;BME280;32161;48.148;-1.554;2023-07-31T08:25:50;100677.25;;;19.95;98.65
46464;BME280;32161;48.148;-1.554;2023-07-31T08:28:17;100688.00;;;19.96;99.00
46464;BME280;32161;48.148;-1.554;2023-07-31T08:30:46;100681.50;;;20.06;97.77
46464;BME280;32161;48.148;-1.554;2023-07-31T08:33:13;100674.25;;;20.15;97.71
46464;BME280;32161;48.148;-1.554;2023-07-31T08:35:42;100668.88;;;20.24;96.53
46464;BME280;32161;48.148;-1.554;2023-07-31T08:38:10;100669.50;;;19.97;98.62
46464;BME280;32161;48.148;-1.554;2023-07-31T08:40:37;100666.66;;;20.02;99.29
46464;BME280;32161;48.148;-1.554;2023-07-31T08:43:05;100676.84;;;20.07;99.28
46464;BME280;32161;48.148;-1.554;2023-07-31T08:45:33;100679.31;;;19.84;100.00
46464;BME280;32161;48.148;-1.554;2023-07-31T08:48:01;100668.28;;;19.84;100.00
46464;BME280;32161;48.148;-1.554;2023-07-31T08:50:29;100667.47;;;19.84;100.00
46464;BME280;32161;48.148;-1.554;2023-07-31T08:52:57;100661.63;;;19.61;100.00
46464;BME280;32161;48.148;-1.554;2023-07-31T08:55:26;100663.81;;;19.88;100.00
46464;BME280;32161;48.148;-1.554;2023-07-31T08:57:54;100658.16;;;19.98;100.00
46464;BME280;32161;48.148;-1.554;2023-07-31T09:00:23;100666.16;;;20.00;100.00
46464;BME280;32161;48.148;-1.554;2023-07-31T09:02:57;100650.06;;;20.07;100.00
46464;BME280;32161;48.148;-1.554;2023-07-31T09:05:30;100654.00;;;20.01;100.00
46464;BME280;32161;48.148;-1.554;2023-07-31T09:08:00;100657.00;;;20.05;100.00
46464;BME280;32161;48.148;-1.554;2023-07-31T09:10:29;100657.53;;;20.07;100.00
46464;BME280;32161;48.148;-1.554;2023-07-31T09:12:56;100666.34;;;20.28;100.00
46464;BME280;32161;48.148;-1.554;2023-07-31T09:15:25;100682.09;;;20.27;100.00
46464;BME280;32161;48.148;-1.554;2023-07-31T09:18:00;100669.06;;;20.09;100.00
46464;BME280;32161;48.148;-1.554;2023-07-31T09:20:28;100681.13;;;20.18;100.00
46464;BME280;32161;48.148;-1.554;2023-07-31T09:22:56;100682.47;;;19.96;100.00
46464;BME280;32161;48.148;-1.554;2023-07-31T09:25:33;100684.41;;;19.96;100.00
46464;BME280;32161;48.148;-1.554;2023-07-31T09:28:03;100670.94;;;20.13;100.00
46464;BME280;32161;48.148;-1.554;2023-07-31T09:30:43;100669.78;;;20.19;100.00
46464;BME280;32161;48.148;-1.554;2023-07-31T09:33:11;100663.06;;;20.26;100.00
46464;BME280;32161;48.148;-1.554;2023-07-31T09:35:39;100654.53;;;20.41;100.00
46464;BME280;32161;48.148;-1.554;2023-07-31T09:38:10;100657.72;;;20.53;100.00
46464;BME280;32161;48.148;-1.554;2023-07-31T09:40:42;100657.13;;;20.56;100.00
46464;BME280;32161;48.148;-1.554;2023-07-31T09:43:11;100651.88;;;20.73;100.00
46464;BME280;32161;48.148;-1.554;2023-07-31T09:45:42;100662.91;;;20.92;100.00
46464;BME280;32161;48.148;-1.554;2023-07-31T09:48:12;100659.00;;;20.93;100.00
46464;BME280;32161;48.148;-1.554;2023-07-31T09:50:46;100665.91;;;21.10;100.00
46464;BME280;32161;48.148;-1.554;2023-07-31T09:53:15;100651.00;;;21.25;100.00
46464;BME280;32161;48.148;-1.554;2023-07-31T09:55:45;100648.19;;;21.30;100.00
46464;BME280;32161;48.148;-1.554;2023-07-31T09:58:13;100645.56;;;21.52;100.00
46464;BME280;32161;48.148;-1.554;2023-07-31T10:00:41;100642.69;;;21.57;97.55
46464;BME280;32161;48.148;-1.554;2023-07-31T10:03:10;100643.84;;;21.56;95.84
46464;BME280;32161;48.148;-1.554;2023-07-31T10:05:42;100646.06;;;21.40;95.80
46464;BME280;32161;48.148;-1.554;2023-07-31T10:08:11;100643.63;;;21.53;94.96
46464;BME280;32161;48.148;-1.554;2023-07-31T10:10:44;100628.97;;;21.66;94.83
46464;BME280;32161;48.148;-1.554;2023-07-31T10:13:13;100623.84;;;21.73;94.33
46464;BME280;32161;48.148;-1.554;2023-07-31T10:15:41;100620.66;;;21.66;95.39
46464;BME280;32161;48.148;-1.554;2023-07-31T10:18:09;100624.06;;;21.49;96.30
46464;BME280;32161;48.148;-1.554;2023-07-31T10:20:38;100625.06;;;21.67;95.42
46464;BME280;32161;48.148;-1.554;2023-07-31T10:23:06;100632.13;;;21.59;96.15
46464;BME280;32161;48.148;-1.554;2023-07-31T10:25:34;100631.22;;;21.50;96.47
46464;BME280;32161;48.148;-1.554;2023-07-31T10:28:04;100628.28;;;21.28;98.62
46464;BME280;32161;48.148;-1.554;2023-07-31T10:30:33;100623.22;;;21.35;98.70
46464;BME280;32161;48.148;-1.554;2023-07-31T10:33:05;100619.88;;;21.19;100.00
46464;BME280;32161;48.148;-1.554;2023-07-31T10:35:33;100621.13;;;21.27;100.00
46464;BME280;32161;48.148;-1.554;2023-07-31T10:38:10;100618.44;;;21.21;100.00
46464;BME280;32161;48.148;-1.554;2023-07-31T10:40:39;100612.41;;;21.19;100.00
46464;BME280;32161;48.148;-1.554;2023-07-31T10:43:09;100602.38;;;21.24;100.00
46464;BME280;32161;48.148;-1.554;2023-07-31T10:45:38;100610.06;;;21.27;100.00
46464;BME280;32161;48.148;-1.554;2023-07-31T10:48:12;100605.16;;;21.24;100.00
46464;BME280;32161;48.148;-1.554;2023-07-31T10:50:48;100599.19;;;21.16;100.00
46464;BME280;32161;48.148;-1.554;2023-07-31T10:53:23;100603.50;;;21.23;100.00
46464;BME280;32161;48.148;-1.554;2023-07-31T10:55:51;100596.75;;;21.29;100.00
46464;BME280;32161;48.148;-1.554;2023-07-31T10:58:22;100596.75;;;21.29;100.00
46464;BME280;32161;48.148;-1.554;2023-07-31T11:00:49;100609.88;;;21.23;100.00
46464;BME280;32161;48.148;-1.554;2023-07-31T11:03:18;100603.72;;;21.26;100.00
46464;BME280;32161;48.148;-1.554;2023-07-31T11:05:52;100588.50;;;21.42;100.00
46464;BME280;32161;48.148;-1.554;2023-07-31T11:08:22;100601.81;;;21.54;100.00
46464;BME280;32161;48.148;-1.554;2023-07-31T11:11:06;100591.28;;;21.56;100.00
46464;BME280;32161;48.148;-1.554;2023-07-31T11:13:42;100574.69;;;21.56;100.00
46464;BME280;32161;48.148;-1.554;2023-07-31T11:16:10;100567.91;;;21.62;100.00
46464;BME280;32161;48.148;-1.554;2023-07-31T11:18:40;100578.56;;;21.69;100.00
46464;BME280;32161;48.148;-1.554;2023-07-31T11:21:08;100594.44;;;21.91;100.00
46464;BME280;32161;48.148;-1.554;2023-07-31T11:23:37;100591.13;;;21.89;100.00
46464;BME280;32161;48.148;-1.554;2023-07-31T11:26:06;100576.91;;;21.82;100.00
46464;BME280;32161;48.148;-1.554;2023-07-31T11:28:36;100577.56;;;22.01;96.83
46464;BME280;32161;48.148;-1.554;2023-07-31T11:31:04;100571.88;;;21.84;99.61
46464;BME280;32161;48.148;-1.554;2023-07-31T11:33:32;100562.97;;;21.73;100.00
46464;BME280;32161;48.148;-1.554;2023-07-31T11:36:00;100561.84;;;21.74;99.99
46464;BME280;32161;48.148;-1.554;2023-07-31T11:38:29;100564.94;;;21.73;100.00
46464;BME280;32161;48.148;-1.554;2023-07-31T11:40:58;100576.28;;;21.71;98.64
46464;BME280;32161;48.148;-1.554;2023-07-31T11:43:26;100558.06;;;21.84;99.14
46464;BME280;32161;48.148;-1.554;2023-07-31T11:45:57;100563.50;;;22.11;96.26
46464;BME280;32161;48.148;-1.554;2023-07-31T11:48:27;100566.22;;;21.89;97.48
46464;BME280;32161;48.148;-1.554;2023-07-31T11:50:58;100570.22;;;21.83;97.82
46464;BME280;32161;48.148;-1.554;2023-07-31T11:53:29;100566.75;;;21.91;97.84
46464;BME280;32161;48.148;-1.554;2023-07-31T11:55:59;100581.41;;;21.78;98.53
46464;BME280;32161;48.148;-1.554;2023-07-31T11:58:28;100567.66;;;21.86;98.31
46464;BME280;32161;48.148;-1.554;2023-07-31T12:00:58;100573.34;;;21.54;100.00
46464;BME280;32161;48.148;-1.554;2023-07-31T12:03:27;100550.59;;;21.43;100.00
46464;BME280;32161;48.148;-1.554;2023-07-31T12:05:55;100544.72;;;21.17;100.00
46464;BME280;32161;48.148;-1.554;2023-07-31T12:08:24;100545.56;;;21.31;100.00
46464;BME280;32161;48.148;-1.554;2023-07-31T12:10:52;100539.31;;;21.26;100.00
46464;BME280;32161;48.148;-1.554;2023-07-31T12:13:22;100538.22;;;21.54;100.00
46464;BME280;32161;48.148;-1.554;2023-07-31T12:15:53;100518.72;;;21.73;100.00
46464;BME280;32161;48.148;-1.554;2023-07-31T12:18:25;100507.34;;;22.11;100.00
46464;BME280;32161;48.148;-1.554;2023-07-31T12:20:55;100507.53;;;22.37;99.48
46464;BME280;32161;48.148;-1.554;2023-07-31T12:23:27;100505.03;;;22.49;99.23
46464;BME280;32161;48.148;-1.554;2023-07-31T12:26:01;100502.00;;;22.37;98.84
46464;BME280;32161;48.148;-1.554;2023-07-31T12:28:29;100494.97;;;22.53;96.36
46464;BME280;32161;48.148;-1.554;2023-07-31T12:30:58;100496.97;;;22.61;95.60
46464;BME280;32161;48.148;-1.554;2023-07-31T12:33:33;100484.09;;;22.65;94.48
46464;BME280;32161;48.148;-1.554;2023-07-31T12:36:03;100493.19;;;22.57;92.13
46464;BME280;32161;48.148;-1.554;2023-07-31T12:38:30;100493.41;;;22.92;89.67
46464;BME280;32161;48.148;-1.554;2023-07-31T12:40:58;100489.72;;;22.83;88.77
46464;BME280;32161;48.148;-1.554;2023-07-31T12:43:26;100483.56;;;22.55;91.17
46464;BME280;32161;48.148;-1.554;2023-07-31T12:45:55;100466.31;;;22.58;91.33